Time;durP1;ratioP1;P1;durP2;ratioP2;P2;SDS_P1;SDS_P2;PMS_P1;PMS_P2;Temp;Humidity;BMP_temperature;BMP_pressure;BME280_temperature;BME280_humidity;BME280_pressure;Samples;Min_cycle;Max_cycle;Signal;HPM_P1;HPM_P2
2023/01/03 00:00:42;;;;;;;3.95;2.47;;;;;;;-1.02;69.96;99547.66;5106615;27;20064;-72
2023/01/03 00:03:06;;;;;;;6.40;2.80;;;;;;;-0.97;71.31;99535.31;5123656;27;20038;-70
2023/01/03 00:05:34;;;;;;;3.63;2.67;;;;;;;-0.97;71.32;99530.06;5125850;27;20062;-73
2023/01/03 00:07:58;;;;;;;3.42;2.38;;;;;;;-0.96;71.35;99525.69;5088570;27;20030;-72
2023/01/03 00:10:23;;;;;;;3.83;2.50;;;;;;;-0.95;71.47;99519.56;5088583;27;20120;-79
2023/01/03 00:12:47;;;;;;;3.70;2.67;;;;;;;-0.94;71.12;99527.38;5127030;27;20038;-77
2023/01/03 00:15:15;;;;;;;7.20;2.67;;;;;;;-0.97;70.09;99514.38;5126457;27;20039;-77
2023/01/03 00:17:41;;;;;;;3.28;2.25;;;;;;;-0.89;71.61;99515.00;5093377;27;20444;-77
2023/01/03 00:20:08;;;;;;;4.45;2.40;;;;;;;-1.00;69.79;99509.22;5095852;27;20037;-75
2023/01/03 00:22:32;;;;;;;5.25;2.20;;;;;;;-0.96;70.02;99512.63;5109372;27;20469;-76
2023/01/03 00:24:57;;;;;;;2.33;2.13;;;;;;;-0.93;70.71;99499.47;5131219;27;20457;-76
2023/01/03 00:27:22;;;;;;;2.65;1.52;;;;;;;-0.88;71.29;99502.78;5129412;27;20042;-76
2023/01/03 00:29:46;;;;;;;2.53;1.98;;;;;;;-0.85;72.15;99510.56;5110362;27;20039;-75
2023/01/03 00:32:11;;;;;;;4.40;2.00;;;;;;;-0.87;71.60;99510.59;5089283;27;20400;-81
2023/01/03 00:34:36;;;;;;;4.55;2.20;;;;;;;-0.89;71.52;99508.91;5122897;27;20041;-78
2023/01/03 00:37:00;;;;;;;3.63;2.22;;;;;;;-0.88;70.79;99495.78;5090164;27;20042;-80
2023/01/03 00:39:25;;;;;;;3.28;2.00;;;;;;;-0.87;70.75;99497.50;5086867;27;20043;-75
2023/01/03 00:41:50;;;;;;;2.78;1.92;;;;;;;-0.88;69.90;99502.78;5116229;27;20420;-79
2023/01/03 00:44:15;;;;;;;3.25;2.15;;;;;;;-0.96;69.48;99494.28;5085830;27;20133;-79
2023/01/03 00:46:41;;;;;;;3.80;2.10;;;;;;;-0.94;69.90;99487.28;5103697;27;20035;-73
2023/01/03 00:49:06;;;;;;;4.30;2.78;;;;;;;-0.96;69.60;99495.16;5123329;27;20053;-78
2023/01/03 00:51:32;;;;;;;4.88;2.13;;;;;;;-0.84;71.16;99488.72;5123860;27;20051;-77
2023/01/03 00:53:59;;;;;;;2.88;1.85;;;;;;;-0.91;70.50;99480.19;5123932;27;20027;-76
2023/01/03 00:56:29;;;;;;;6.18;2.15;;;;;;;-0.95;70.53;99480.31;5133600;27;20054;-77
2023/01/03 00:58:54;;;;;;;2.80;1.77;;;;;;;-0.94;70.90;99468.94;5131987;27;20053;-77
2023/01/03 01:01:44;;;;;;;3.47;2.47;;;;;;;-0.87;70.66;99473.97;5114079;27;20043;-75
2023/01/03 01:04:17;;;;;;;4.50;2.08;;;;;;;-0.88;70.03;99468.78;5130287;27;20421;-74
2023/01/03 01:06:45;;;;;;;4.38;2.38;;;;;;;-1.07;68.62;99460.59;5121809;27;20078;-77
2023/01/03 01:09:13;;;;;;;6.90;2.13;;;;;;;-1.02;68.85;99455.22;5082483;27;20152;-73
2023/01/03 01:11:38;;;;;;;5.60;2.17;;;;;;;-1.05;68.65;99450.06;5091463;27;20042;-73
2023/01/03 01:14:18;;;;;;;3.38;1.95;;;;;;;-0.96;68.67;99445.44;5120368;27;20072;-72
2023/01/03 01:16:43;;;;;;;2.15;1.95;;;;;;;-0.91;69.61;99443.56;5119828;27;20548;-72
2023/01/03 01:19:07;;;;;;;4.38;2.17;;;;;;;-0.95;68.99;99443.69;5104164;27;20619;-73
2023/01/03 01:21:32;;;;;;;5.63;1.95;;;;;;;-0.99;68.53;99428.97;5129914;27;20039;-75
2023/01/03 01:23:58;;;;;;;2.95;1.77;;;;;;;-0.90;69.95;99426.94;5118631;27;20038;-76
2023/01/03 01:26:24;;;;;;;2.60;1.50;;;;;;;-0.97;69.06;99427.16;5111163;27;20062;-71
2023/01/03 01:28:50;;;;;;;3.85;1.98;;;;;;;-0.93;70.04;99413.97;5110476;27;20063;-73
2023/01/03 01:31:17;;;;;;;1.98;1.88;;;;;;;-0.94;69.36;99411.38;5126593;27;20073;-71
2023/01/03 01:33:42;;;;;;;3.70;1.58;;;;;;;-0.87;70.84;99397.22;5124315;27;20045;-76
2023/01/03 01:36:11;;;;;;;3.72;2.53;;;;;;;-0.96;70.44;99407.97;5085891;27;20037;-78
2023/01/03 01:38:36;;;;;;;2.85;1.98;;;;;;;-1.02;70.12;99397.69;5131152;27;20079;-78
2023/01/03 01:41:01;;;;;;;2.25;1.73;;;;;;;-1.08;69.57;99388.22;5092994;27;20039;-75
2023/01/03 01:46:23;;;;;;;3.78;2.15;;;;;;;-0.99;69.98;99376.63;5115837;27;20562;-74
2023/01/03 01:48:53;;;;;;;4.47;1.75;;;;;;;-0.96;70.93;99373.94;5097792;27;20373;-75
2023/01/03 01:51:21;;;;;;;4.13;2.03;;;;;;;-1.06;69.49;99370.75;5101380;27;20074;-76
2023/01/03 01:53:46;;;;;;;4.65;2.10;;;;;;;-1.07;69.58;99373.41;5094808;27;20042;-76
2023/01/03 01:56:18;;;;;;;3.85;1.73;;;;;;;-1.01;70.66;99360.13;5065365;27;20035;-78
2023/01/03 01:58:46;;;;;;;2.83;1.65;;;;;;;-1.00;70.92;99359.22;5100857;27;20061;-76
2023/01/03 02:01:15;;;;;;;4.53;2.05;;;;;;;-1.05;71.20;99361.13;5098494;27;20444;-74
2023/01/03 02:03:42;;;;;;;1.48;1.33;;;;;;;-1.07;71.39;99348.09;5099105;27;20532;-77
2023/01/03 02:06:11;;;;;;;3.97;2.22;;;;;;;-1.07;72.31;99337.63;5097928;27;20059;-77
2023/01/03 02:08:36;;;;;;;2.70;2.15;;;;;;;-1.18;71.92;99330.09;5098903;27;20128;-71
2023/01/03 02:11:26;;;;;;;3.45;2.05;;;;;;;-1.08;72.75;99322.84;5083848;27;20035;-80
2023/01/03 02:14:06;;;;;;;3.15;1.88;;;;;;;-1.03;73.56;99318.34;5077706;27;20413;-72
2023/01/03 02:17:15;;;;;;;2.20;1.63;;;;;;;-1.09;73.20;99310.66;5074242;28;20135;-75
2023/01/03 02:19:48;;;;;;;4.03;1.98;;;;;;;-1.03;73.19;99302.66;5094696;27;20123;-74
2023/01/03 02:23:00;;;;;;;6.82;1.95;;;;;;;-1.06;72.96;99301.88;5095949;27;20077;-70
2023/01/03 02:26:13;;;;;;;2.72;2.22;;;;;;;-1.10;72.36;99288.88;5011643;28;20095;-70
2023/01/03 02:29:02;;;;;;;3.92;1.40;;;;;;;-1.04;72.04;99289.59;5013426;28;20086;-73
2023/01/03 02:31:39;;;;;;;4.05;1.95;;;;;;;-1.06;72.19;99291.41;4997817;28;20119;-74
2023/01/03 02:34:36;;;;;;;2.53;1.70;;;;;;;-1.02;72.47;99277.34;5015542;28;20045;-71
2023/01/03 02:37:26;;;;;;;2.95;1.88;;;;;;;-0.97;72.22;99281.50;4919784;28;20062;-74
2023/01/03 02:40:17;;;;;;;2.97;1.83;;;;;;;-1.13;69.73;99278.50;4897938;29;20581;-74
2023/01/03 02:42:57;;;;;;;3.22;1.92;;;;;;;-1.04;69.78;99277.38;4891969;29;20423;-73
2023/01/03 02:45:47;;;;;;;3.13;2.35;;;;;;;-1.00;69.90;99263.28;4898740;29;20110;-73
2023/01/03 02:48:18;;;;;;;1.90;1.67;;;;;;;-0.93;70.98;99256.13;4882146;29;20550;-73
2023/01/03 02:50:48;;;;;;;4.30;1.65;;;;;;;-0.96;71.08;99259.69;4899013;29;20115;-76
2023/01/03 02:53:18;;;;;;;3.00;2.30;;;;;;;-1.03;71.90;99245.09;4898820;29;20583;-76
2023/01/03 02:55:43;;;;;;;2.35;1.33;;;;;;;-1.07;72.44;99247.84;4898915;29;20884;-75
2023/01/03 02:58:21;;;;;;;4.32;2.17;;;;;;;-1.05;73.29;99235.56;4898801;29;20991;-75
2023/01/03 03:00:50;;;;;;;2.95;1.73;;;;;;;-1.16;74.11;99234.16;4893235;28;20050;-73
2023/01/03 03:03:20;;;;;;;2.42;2.10;;;;;;;-1.30;74.56;99233.69;4952174;28;20050;-72
2023/01/03 03:06:08;;;;;;;1.75;1.38;;;;;;;-1.21;75.55;99228.19;4963880;28;20038;-77
2023/01/03 03:08:33;;;;;;;4.60;1.35;;;;;;;-1.14;75.48;99219.25;4979964;28;20049;-71
2023/01/03 03:13:53;;;;;;;3.67;2.30;;;;;;;-1.44;75.72;99222.78;4983832;28;20067;-78
2023/01/03 03:25:46;;;;;;;6.15;2.47;;;;;;;-1.64;77.58;99194.63;5009103;28;20427;-74
2023/01/03 03:28:33;;;;;;;3.75;2.47;;;;;;;-1.69;77.38;99186.06;5011551;28;20064;-73
2023/01/03 03:31:10;;;;;;;4.25;2.58;;;;;;;-1.76;77.94;99181.94;5001093;28;20052;-74
2023/01/03 03:34:00;;;;;;;5.15;2.80;;;;;;;-1.71;78.25;99180.06;4988309;28;20500;-73
2023/01/03 03:36:37;;;;;;;4.38;2.60;;;;;;;-1.72;78.65;99175.72;4977934;28;20099;-73
2023/01/03 03:39:04;;;;;;;3.47;2.33;;;;;;;-1.79;79.11;99168.09;5002460;28;20053;-68
2023/01/03 03:47:25;;;;;;;2.72;1.90;;;;;;;-1.58;80.36;99154.41;5002404;28;20128;-67
2023/01/03 03:49:54;;;;;;;3.67;1.70;;;;;;;-1.50;79.91;99147.19;4996060;28;20509;-67
2023/01/03 03:52:25;;;;;;;3.47;2.33;;;;;;;-1.48;79.64;99137.53;5014551;28;20049;-68
2023/01/03 03:54:58;;;;;;;3.45;2.13;;;;;;;-1.48;79.80;99116.63;4999745;28;20033;-67
2023/01/03 03:57:34;;;;;;;2.47;1.77;;;;;;;-1.49;79.89;99115.78;5095971;27;20034;-66
2023/01/03 04:00:07;;;;;;;3.40;1.33;;;;;;;-1.41;79.64;99106.81;5097921;27;20038;-68
2023/01/03 04:02:38;;;;;;;2.60;1.25;;;;;;;-1.47;79.89;99107.88;5098990;27;20816;-69
2023/01/03 04:05:08;;;;;;;2.88;1.88;;;;;;;-1.45;80.32;99095.59;5102545;27;20065;-74
2023/01/03 04:07:33;;;;;;;2.38;1.63;;;;;;;-1.34;80.79;99087.41;5103123;27;20130;-73
2023/01/03 04:09:58;;;;;;;2.78;1.52;;;;;;;-1.33;80.71;99083.88;5102365;27;20121;-76
2023/01/03 04:12:23;;;;;;;4.53;1.98;;;;;;;-1.28;81.00;99082.00;5082098;27;20129;-74
2023/01/03 04:14:48;;;;;;;2.58;1.60;;;;;;;-1.20;81.06;99070.38;5117603;27;20067;-74
2023/01/03 04:17:12;;;;;;;2.63;1.65;;;;;;;-1.15;81.12;99065.84;5120293;27;20042;-73
2023/01/03 04:19:37;;;;;;;2.25;1.52;;;;;;;-1.06;80.90;99053.38;5120955;27;20042;-72
2023/01/03 04:22:01;;;;;;;1.17;0.98;;;;;;;-1.05;80.87;99050.69;5081925;27;20505;-73
2023/01/03 04:24:26;;;;;;;3.40;2.47;;;;;;;-1.02;80.92;99042.75;5112685;27;20050;-73
2023/01/03 04:26:50;;;;;;;2.63;1.25;;;;;;;-1.06;80.55;99020.22;5120783;27;20043;-72
2023/01/03 04:29:15;;;;;;;1.95;1.27;;;;;;;-1.12;80.81;99020.41;5102832;27;20389;-74
2023/01/03 04:31:40;;;;;;;4.03;1.83;;;;;;;-1.14;81.18;99007.41;5102714;27;20198;-73
2023/01/03 04:34:05;;;;;;;1.83;1.45;;;;;;;-1.10;81.02;99013.38;5104344;27;20038;-73
2023/01/03 04:36:29;;;;;;;2.78;1.50;;;;;;;-1.03;80.77;99003.56;5122531;27;20039;-74
2023/01/03 04:38:54;;;;;;;2.38;1.77;;;;;;;-1.01;80.72;98999.09;5085886;27;20121;-78
2023/01/03 04:41:18;;;;;;;3.55;1.50;;;;;;;-1.08;81.08;98989.78;5121051;27;20043;-71
2023/01/03 04:44:01;;;;;;;2.33;1.30;;;;;;;-1.13;81.26;98993.41;5102428;27;20046;-72
2023/01/03 04:46:38;;;;;;;1.42;1.17;;;;;;;-1.11;81.46;98978.50;5129615;27;20046;-73
2023/01/03 04:49:05;;;;;;;1.58;1.27;;;;;;;-1.06;81.73;98970.53;5119154;27;20045;-73
2023/01/03 04:51:30;;;;;;;3.70;1.80;;;;;;;-1.02;81.84;98960.81;5100718;27;20074;-73
2023/01/03 04:53:58;;;;;;;2.42;1.60;;;;;;;-0.90;81.82;98937.66;5066138;27;20035;-73
2023/01/03 04:56:25;;;;;;;5.72;2.33;;;;;;;-0.91;81.76;98933.34;5100630;27;20042;-75
2023/01/03 04:58:50;;;;;;;2.10;1.33;;;;;;;-0.98;81.42;98933.59;5097356;27;20043;-74
2023/01/03 05:01:17;;;;;;;1.38;1.10;;;;;;;-1.00;81.53;98940.66;5062631;27;20094;-65
2023/01/03 05:03:42;;;;;;;3.20;2.10;;;;;;;-1.00;81.85;98923.19;5082135;27;20057;-65
2023/01/03 05:06:07;;;;;;;3.20;1.95;;;;;;;-1.04;81.45;98921.63;5079871;27;20051;-66
2023/01/03 05:08:33;;;;;;;3.72;2.08;;;;;;;-1.05;81.97;98924.28;5098051;27;20069;-66
2023/01/03 05:10:58;;;;;;;4.88;2.35;;;;;;;-0.98;82.00;98925.75;5048255;27;20497;-66
2023/01/03 05:13:22;;;;;;;3.45;2.55;;;;;;;-1.00;82.45;98920.59;5098080;27;20436;-66
2023/01/03 05:15:47;;;;;;;4.57;2.65;;;;;;;-0.91;82.10;98903.72;5079566;27;20039;-67
2023/01/03 05:18:12;;;;;;;4.22;2.58;;;;;;;-0.96;82.20;98896.03;5062675;27;20035;-67
2023/01/03 05:26:23;;;;;;;3.10;2.15;;;;;;;-0.87;82.05;98868.66;5079170;27;20063;-68
2023/01/03 05:28:53;;;;;;;6.97;2.17;;;;;;;-0.86;81.82;98863.38;5059427;28;20040;-68
2023/01/03 05:31:18;;;;;;;3.30;1.95;;;;;;;-0.87;81.75;98866.91;5094924;27;20122;-68
2023/01/03 05:33:43;;;;;;;3.30;2.17;;;;;;;-0.92;81.79;98866.25;5098455;27;20050;-67
2023/01/03 05:36:08;;;;;;;3.33;2.65;;;;;;;-0.82;81.76;98854.50;5098442;27;20038;-68
2023/01/03 05:38:33;;;;;;;2.80;1.75;;;;;;;-0.88;81.62;98851.25;5060386;28;20050;-66
2023/01/03 05:40:58;;;;;;;6.55;2.42;;;;;;;-0.91;81.62;98851.41;5091558;27;20035;-67
2023/01/03 05:43:23;;;;;;;1.98;1.65;;;;;;;-1.01;81.62;98850.84;5079949;27;20481;-66
2023/01/03 05:45:50;;;;;;;3.03;1.92;;;;;;;-0.94;81.87;98849.75;5098483;27;20046;-67
2023/01/03 05:48:15;;;;;;;1.67;1.58;;;;;;;-0.98;81.88;98855.97;5079420;27;20049;-66
2023/01/03 05:50:39;;;;;;;3.80;2.17;;;;;;;-1.05;81.85;98858.91;5092466;27;20058;-66
2023/01/03 05:53:04;;;;;;;3.92;1.70;;;;;;;-1.02;82.20;98851.81;5088478;27;20057;-65
2023/01/03 05:55:28;;;;;;;4.50;2.67;;;;;;;-1.01;82.37;98835.16;5061967;27;20058;-66
2023/01/03 05:57:53;;;;;;;6.45;2.10;;;;;;;-0.91;82.75;98812.16;5097016;27;20085;-67
2023/01/03 06:00:18;;;;;;;5.93;2.58;;;;;;;-0.97;82.37;98797.53;5097059;27;20031;-67
2023/01/03 06:02:43;;;;;;;5.63;3.95;;;;;;;-0.94;82.33;98796.56;5097169;27;20043;-66
2023/01/03 06:05:08;;;;;;;4.28;2.70;;;;;;;-0.96;82.24;98786.16;5097106;27;20043;-66
2023/01/03 06:07:35;;;;;;;6.78;2.63;;;;;;;-0.84;82.07;98783.06;5096685;27;20102;-65
2023/01/03 06:09:59;;;;;;;6.70;2.22;;;;;;;-0.87;81.94;98784.94;5097081;27;20035;-66
2023/01/03 06:12:28;;;;;;;5.68;3.22;;;;;;;-0.91;81.68;98778.13;5096998;27;20058;-66
2023/01/03 06:14:53;;;;;;;3.65;2.60;;;;;;;-1.01;81.82;98766.31;5077922;27;20047;-65
2023/01/03 06:20:00;;;;;;;4.53;2.80;;;;;;;-0.96;81.88;98756.53;5096478;27;20092;-64
2023/01/03 06:22:25;;;;;;;2.33;2.13;;;;;;;-1.05;82.29;98754.28;5096378;27;20043;-66
2023/01/03 06:24:49;;;;;;;3.97;2.47;;;;;;;-1.05;82.35;98742.03;5096866;27;20031;-66
2023/01/03 06:27:14;;;;;;;2.95;2.33;;;;;;;-0.99;82.63;98727.84;5097157;27;20138;-67
2023/01/03 06:29:39;;;;;;;4.95;2.95;;;;;;;-0.87;82.79;98716.91;5043323;28;20059;-64
2023/01/03 06:32:03;;;;;;;6.53;2.70;;;;;;;-0.93;82.30;98719.78;5087628;27;20075;-68
2023/01/03 06:34:29;;;;;;;2.95;2.00;;;;;;;-0.95;82.39;98711.13;5047273;27;20795;-68
2023/01/03 06:36:53;;;;;;;4.63;3.45;;;;;;;-0.97;82.63;98720.81;5079342;27;20815;-67
2023/01/03 06:39:18;;;;;;;3.53;2.65;;;;;;;-0.84;83.34;98712.41;5096792;27;20497;-66
2023/01/03 06:41:42;;;;;;;4.93;3.40;;;;;;;-0.83;82.75;98715.88;5077711;27;20126;-68
2023/01/03 06:44:10;;;;;;;2.95;2.60;;;;;;;-0.86;82.80;98703.78;5078028;27;20047;-67
2023/01/03 06:55:01;;;;;;;2.55;1.92;;;;;;;-0.74;83.69;98691.97;5060649;28;20249;-67
2023/01/03 06:57:27;;;;;;;2.40;1.38;;;;;;;-0.60;83.44;98707.94;5035919;28;20098;-65
2023/01/03 06:59:52;;;;;;;5.20;2.38;;;;;;;-0.66;83.62;98702.09;5036133;28;20055;-65
2023/01/03 07:02:17;;;;;;;3.20;2.30;;;;;;;-0.63;83.58;98688.88;5019363;28;20093;-66
2023/01/03 07:04:41;;;;;;;3.78;2.33;;;;;;;-0.58;83.47;98682.56;5053182;28;20526;-66
2023/01/03 07:07:06;;;;;;;4.65;3.03;;;;;;;-0.56;83.63;98666.78;5052769;28;20585;-66
2023/01/03 07:09:30;;;;;;;3.38;2.75;;;;;;;-0.44;83.05;98674.09;5035004;28;20048;-66
2023/01/03 07:11:55;;;;;;;2.58;1.92;;;;;;;-0.42;83.37;98664.41;5013504;28;20525;-66
2023/01/03 07:14:19;;;;;;;4.20;2.58;;;;;;;-0.43;82.89;98660.94;5033596;28;20052;-66
2023/01/03 07:16:46;;;;;;;3.17;1.75;;;;;;;-0.47;83.40;98641.06;5037936;28;20024;-67
2023/01/03 07:19:16;;;;;;;5.13;3.35;;;;;;;-0.40;83.20;98634.66;5055909;28;20067;-67
2023/01/03 07:21:41;;;;;;;2.67;1.88;;;;;;;-0.27;82.80;98628.88;5045599;28;20063;-66
2023/01/03 07:24:07;;;;;;;6.32;2.47;;;;;;;-0.33;82.35;98647.47;5037747;28;20047;-65
2023/01/03 07:26:33;;;;;;;4.07;2.42;;;;;;;-0.37;82.20;98631.06;5078782;27;20047;-66
2023/01/03 07:29:00;;;;;;;3.17;2.70;;;;;;;-0.35;82.44;98631.00;5096782;27;20031;-67
2023/01/03 07:31:25;;;;;;;1.60;1.33;;;;;;;-0.38;82.50;98627.59;5095783;27;20062;-66
2023/01/03 07:33:51;;;;;;;2.20;1.85;;;;;;;-0.32;83.09;98636.06;5077295;28;20126;-66
2023/01/03 07:36:16;;;;;;;4.50;3.00;;;;;;;-0.40;82.68;98623.31;5095521;28;20039;-66
2023/01/03 07:38:43;;;;;;;2.42;2.22;;;;;;;-0.43;82.74;98619.06;5095539;28;20054;-65
2023/01/03 07:41:09;;;;;;;3.55;2.72;;;;;;;-0.42;82.71;98610.28;5077448;28;20689;-65
2023/01/03 07:43:37;;;;;;;5.05;3.08;;;;;;;-0.46;82.59;98615.75;5077120;28;20058;-65
2023/01/03 07:46:18;;;;;;;7.30;3.88;;;;;;;-0.49;83.07;98611.50;5046998;28;20043;-66
2023/01/03 07:48:45;;;;;;;4.40;2.35;;;;;;;-0.39;83.06;98607.56;5082461;28;20488;-65
2023/01/03 07:51:12;;;;;;;5.00;3.17;;;;;;;-0.48;82.81;98600.09;5077309;28;20047;-65
2023/01/03 07:53:38;;;;;;;1.98;1.77;;;;;;;-0.36;83.05;98585.63;5095947;28;20043;-65
2023/01/03 07:56:05;;;;;;;2.47;1.83;;;;;;;-0.34;82.93;98581.19;5077860;28;20116;-65
2023/01/03 07:58:31;;;;;;;6.40;4.10;;;;;;;-0.46;82.70;98579.94;5095920;28;20063;-66
2023/01/03 08:01:01;;;;;;;3.90;3.17;;;;;;;-0.51;82.76;98576.66;5095497;28;20046;-65
2023/01/03 08:03:26;;;;;;;2.40;2.20;;;;;;;-0.30;83.07;98572.25;5077048;28;20043;-66
2023/01/03 08:05:50;;;;;;;3.70;3.00;;;;;;;-0.31;82.52;98573.16;5076941;28;20043;-65
2023/01/03 08:08:15;;;;;;;5.63;3.35;;;;;;;-0.41;82.70;98559.63;5056634;28;20045;-65
2023/01/03 08:13:24;;;;;;;3.78;2.80;;;;;;;-0.38;82.83;98548.19;5095014;28;20046;-65
2023/01/03 08:15:51;;;;;;;3.55;2.70;;;;;;;-0.29;82.71;98539.91;5076523;28;20039;-66
2023/01/03 08:18:18;;;;;;;4.57;3.58;;;;;;;-0.40;82.96;98529.06;5099558;28;20088;-67
2023/01/03 08:20:43;;;;;;;4.88;3.25;;;;;;;-0.50;82.96;98531.25;5097166;28;20035;-66
2023/01/03 08:23:08;;;;;;;6.47;4.20;;;;;;;-0.46;83.29;98521.50;5058366;28;20038;-64
2023/01/03 08:25:32;;;;;;;3.92;3.53;;;;;;;-0.50;83.20;98512.06;5095451;28;20498;-66
2023/01/03 08:27:58;;;;;;;4.78;3.50;;;;;;;-0.40;83.69;98510.75;5043149;28;20504;-66
2023/01/03 08:30:23;;;;;;;5.93;3.85;;;;;;;-0.37;83.25;98501.00;5056738;28;20040;-65
2023/01/03 08:32:48;;;;;;;5.40;3.95;;;;;;;-0.48;83.52;98491.91;5091520;28;20043;-66
2023/01/03 08:35:14;;;;;;;2.42;1.45;;;;;;;-0.32;83.67;98499.91;5095381;28;20130;-67
2023/01/03 08:37:39;;;;;;;3.22;2.78;;;;;;;-0.38;83.31;98490.56;5095641;27;20454;-67
2023/01/03 08:40:05;;;;;;;4.97;4.20;;;;;;;-0.34;83.01;98488.69;5081327;27;20215;-65
2023/01/03 08:42:30;;;;;;;6.18;4.43;;;;;;;-0.40;83.28;98481.94;5080837;27;20054;-65
2023/01/03 08:45:01;;;;;;;6.10;4.45;;;;;;;-0.45;83.95;98474.28;5098323;27;20039;-65
2023/01/03 08:47:29;;;;;;;5.38;3.80;;;;;;;-0.47;83.63;98476.16;5098482;27;20130;-65
2023/01/03 08:49:54;;;;;;;7.85;4.65;;;;;;;-0.49;84.14;98467.50;5066913;28;20042;-66
2023/01/03 08:52:19;;;;;;;5.45;3.58;;;;;;;-0.38;84.29;98457.38;5093095;27;20845;-68
2023/01/03 08:54:44;;;;;;;4.43;2.97;;;;;;;-0.21;84.02;98455.72;5089023;27;20516;-66
2023/01/03 08:57:09;;;;;;;5.10;3.88;;;;;;;-0.27;83.41;98451.66;5079757;27;20043;-66
2023/01/03 08:59:33;;;;;;;5.65;3.90;;;;;;;-0.34;83.75;98442.41;5099236;27;20504;-66
2023/01/03 09:01:59;;;;;;;6.05;4.35;;;;;;;-0.44;83.61;98444.56;5105638;27;20107;-66
2023/01/03 09:04:23;;;;;;;5.95;4.13;;;;;;;-0.50;83.87;98428.31;5097192;27;20042;-67
2023/01/03 09:06:48;;;;;;;5.20;4.10;;;;;;;-0.42;84.58;98429.63;5098152;27;20541;-66
2023/01/03 09:09:12;;;;;;;7.22;4.57;;;;;;;-0.35;84.31;98418.91;5097929;27;20027;-66
2023/01/03 09:11:39;;;;;;;6.22;4.72;;;;;;;-0.39;84.70;98415.56;5079642;27;20042;-65
2023/01/03 09:14:04;;;;;;;5.97;4.65;;;;;;;-0.40;84.50;98408.63;5044334;27;20516;-67
2023/01/03 09:16:28;;;;;;;6.38;4.80;;;;;;;-0.44;84.30;98413.16;5072203;28;20575;-65
2023/01/03 09:18:53;;;;;;;4.55;3.70;;;;;;;-0.46;84.95;98420.25;5072885;27;20042;-66
2023/01/03 09:21:17;;;;;;;7.53;5.53;;;;;;;-0.50;85.16;98408.22;5062126;27;20038;-64
2023/01/03 09:23:42;;;;;;;5.50;3.97;;;;;;;-0.42;85.31;98407.84;5097696;27;20531;-65
2023/01/03 09:26:07;;;;;;;5.13;4.40;;;;;;;-0.45;85.57;98397.50;5097498;27;20043;-65
2023/01/03 09:28:32;;;;;;;6.47;4.70;;;;;;;-0.42;85.55;98392.13;5059047;28;20164;-67
2023/01/03 09:30:57;;;;;;;7.22;4.32;;;;;;;-0.46;85.68;98382.75;5078818;27;20039;-66
2023/01/03 09:33:22;;;;;;;5.95;4.38;;;;;;;-0.43;86.02;98372.13;5097763;27;20074;-64
2023/01/03 09:35:46;;;;;;;6.95;4.75;;;;;;;-0.37;86.08;98364.84;5097357;27;20100;-66
2023/01/03 09:38:11;;;;;;;6.30;4.35;;;;;;;-0.34;86.43;98361.22;5079111;27;20031;-66
2023/01/03 09:40:42;;;;;;;8.52;5.18;;;;;;;-0.29;86.29;98353.97;5097487;27;20039;-66
2023/01/03 09:43:15;;;;;;;7.07;5.00;;;;;;;-0.26;86.38;98343.38;5047755;27;20043;-66
2023/01/03 09:45:51;;;;;;;7.00;4.63;;;;;;;-0.27;86.43;98351.28;5079225;27;20075;-65
2023/01/03 09:48:24;;;;;;;6.80;4.72;;;;;;;-0.26;86.66;98326.81;5096897;27;20035;-66
2023/01/03 09:50:49;;;;;;;7.78;4.90;;;;;;;-0.24;86.46;98325.81;5082583;27;20043;-66
2023/01/03 10:05:11;;;;;;;5.53;4.10;;;;;;;-0.06;86.71;98318.81;5101254;27;20627;-67
2023/01/03 10:07:45;;;;;;;6.40;4.65;;;;;;;-0.07;86.82;98317.09;5099767;27;20098;-65
2023/01/03 10:10:16;;;;;;;7.53;4.37;;;;;;;-0.12;86.80;98309.50;5099169;27;20515;-65
2023/01/03 10:13:16;;;;;;;6.00;4.70;;;;;;;-0.10;87.25;98294.53;5062995;27;20458;-67
2023/01/03 10:15:47;;;;;;;5.30;3.80;;;;;;;-0.01;87.34;98265.28;5104291;27;20053;-66
2023/01/03 10:18:39;;;;;;;5.15;3.42;;;;;;;0.08;87.38;98255.25;5117790;27;20051;-66
2023/01/03 10:21:27;;;;;;;6.63;4.97;;;;;;;0.04;87.12;98261.56;5098540;27;20035;-66
2023/01/03 10:23:52;;;;;;;7.85;4.28;;;;;;;-0.01;87.01;98251.31;5106256;27;20534;-65
2023/01/03 10:26:18;;;;;;;7.55;4.38;;;;;;;-0.01;87.63;98256.56;5062366;27;20035;-67
2023/01/03 10:28:44;;;;;;;7.55;4.55;;;;;;;0.03;87.58;98267.72;5098505;27;20566;-68
2023/01/03 10:31:19;;;;;;;10.35;4.90;;;;;;;0.05;87.63;98264.09;5117076;27;20511;-65
2023/01/03 10:33:46;;;;;;;6.20;4.03;;;;;;;0.15;87.94;98265.31;5117049;27;20042;-67
2023/01/03 10:36:12;;;;;;;6.65;4.90;;;;;;;0.22;87.65;98243.13;5098024;27;20045;-66
2023/01/03 10:38:38;;;;;;;6.47;4.57;;;;;;;0.20;87.83;98242.34;5090230;27;20039;-65
2023/01/03 10:41:03;;;;;;;7.55;5.10;;;;;;;0.19;87.59;98255.53;5092733;27;20030;-65
2023/01/03 10:43:36;;;;;;;11.27;4.65;;;;;;;0.22;87.44;98250.16;5081837;27;20440;-67
2023/01/03 10:46:12;;;;;;;7.57;5.07;;;;;;;0.26;87.80;98251.66;5098512;27;20046;-66
2023/01/03 10:48:43;;;;;;;9.63;5.93;;;;;;;0.34;87.44;98231.13;5049302;28;20057;-65
2023/01/03 10:51:46;;;;;;;6.90;5.05;;;;;;;0.42;87.60;98228.97;5053516;28;20071;-65
2023/01/03 10:54:24;;;;;;;9.25;6.25;;;;;;;0.40;87.68;98237.84;5012943;28;20082;-65
2023/01/03 10:56:49;;;;;;;9.05;6.63;;;;;;;0.34;87.41;98236.38;5010078;28;20041;-73
2023/01/03 10:59:14;;;;;;;9.25;6.57;;;;;;;0.26;87.59;98231.53;4996191;28;20049;-72
2023/01/03 11:01:39;;;;;;;10.60;6.82;;;;;;;0.34;87.70;98223.25;4996291;28;20040;-72
2023/01/03 11:04:12;;;;;;;9.30;5.70;;;;;;;0.40;87.96;98212.47;4993058;28;20120;-71
2023/01/03 11:06:36;;;;;;;9.90;6.63;;;;;;;0.47;87.85;98202.50;4993405;28;20179;-71
2023/01/03 11:09:04;;;;;;;11.88;7.45;;;;;;;0.46;87.66;98198.16;4977100;28;20041;-71
2023/01/03 11:11:40;;;;;;;12.02;7.10;;;;;;;0.49;87.88;98190.16;4979038;28;20524;-73
2023/01/03 11:14:25;;;;;;;14.30;8.05;;;;;;;0.48;87.64;98202.41;5008555;28;20873;-73
2023/01/03 11:16:54;;;;;;;11.05;6.43;;;;;;;0.51;87.91;98190.91;4992656;28;20147;-73
2023/01/03 11:19:19;;;;;;;11.23;7.28;;;;;;;0.49;88.10;98187.53;4998456;28;20061;-72
2023/01/03 11:22:09;;;;;;;10.35;6.60;;;;;;;0.51;88.11;98190.91;4996342;28;20040;-72
2023/01/03 11:24:52;;;;;;;14.80;7.13;;;;;;;0.58;88.02;98187.03;5008856;28;20064;-71
2023/01/03 11:27:28;;;;;;;18.98;9.07;;;;;;;0.67;88.25;98178.69;5012435;28;20041;-72
2023/01/03 11:30:13;;;;;;;14.45;8.30;;;;;;;0.69;88.26;98175.00;5013808;28;20053;-66
2023/01/03 11:32:40;;;;;;;;;;;;;;;0.78;87.99;98176.31;5056089;28;20135;-67
2023/01/03 11:35:30;;;;;;;13.95;7.53;;;;;;;0.75;87.91;98176.47;5075381;27;20218;-66
2023/01/03 11:38:19;;;;;;;13.48;8.20;;;;;;;0.73;87.99;98168.69;5115611;27;20039;-66
2023/01/03 11:41:11;;;;;;;19.90;9.15;;;;;;;0.76;88.13;98175.53;5116412;27;20038;-69
2023/01/03 11:44:19;;;;;;;13.93;7.85;;;;;;;0.78;87.81;98171.06;5117674;27;20073;-74
2023/01/03 11:46:46;;;;;;;16.73;8.85;;;;;;;0.80;88.30;98177.03;4998459;28;20045;-65
2023/01/03 11:49:29;;;;;;;12.60;7.90;;;;;;;0.86;88.41;98160.97;5013172;28;20036;-66
2023/01/03 11:52:25;;;;;;;13.20;7.80;;;;;;;0.92;87.96;98167.66;5013971;28;20051;-67
2023/01/03 11:55:14;;;;;;;15.90;8.65;;;;;;;1.02;88.00;98155.69;5010332;28;20064;-66
2023/01/03 11:58:02;;;;;;;14.15;7.97;;;;;;;1.02;88.09;98158.31;4999740;28;20645;-69
2023/01/03 12:01:02;;;;;;;15.63;8.95;;;;;;;1.05;88.01;98148.50;4996051;28;20037;-67
2023/01/03 12:03:35;;;;;;;15.13;8.55;;;;;;;1.06;88.42;98150.19;5012887;28;20053;-68
2023/01/03 12:06:18;;;;;;;20.60;9.15;;;;;;;1.07;88.40;98143.16;5012923;28;20135;-68
2023/01/03 12:08:53;;;;;;;15.50;7.60;;;;;;;1.04;87.99;98138.94;5013637;28;20133;-66
2023/01/03 12:11:20;;;;;;;;;;;;;;;1.17;88.31;98140.88;4998299;28;20052;-67
2023/01/03 12:14:12;;;;;;;12.13;7.35;;;;;;;1.19;88.16;98139.84;5000200;28;19917;-69
2023/01/03 12:16:49;;;;;;;14.60;8.63;;;;;;;1.18;88.20;98135.53;4943004;28;20054;-67
2023/01/03 12:19:28;;;;;;;14.07;8.63;;;;;;;1.23;88.18;98137.91;4953267;28;20059;-67
2023/01/03 12:22:01;;;;;;;14.00;7.32;;;;;;;1.26;88.15;98129.81;4956711;28;20453;-68
2023/01/03 12:24:43;;;;;;;15.13;8.73;;;;;;;1.25;87.87;98138.63;5028161;28;20044;-67
2023/01/03 12:27:45;;;;;;;25.23;12.18;;;;;;;1.22;88.45;98128.34;5015909;28;20051;-67
2023/01/03 12:30:28;;;;;;;18.92;10.10;;;;;;;1.32;89.08;98135.59;4988577;28;20139;-66
2023/01/03 12:32:59;;;;;;;16.13;9.07;;;;;;;1.36;88.64;98125.72;5018924;28;20434;-67
2023/01/03 12:35:34;;;;;;;13.50;8.23;;;;;;;1.39;89.20;98125.56;5018975;28;20049;-67
2023/01/03 12:38:04;;;;;;;18.02;10.98;;;;;;;1.47;89.40;98119.88;5035642;28;20525;-69
2023/01/03 12:40:45;;;;;;;19.85;9.63;;;;;;;1.55;89.94;98115.00;5017417;28;20404;-67